• Join FlightAware (Why Join?)
  • Login
  • US Flag 
01:14AM EDT


 

Airport Tracker/Info


-or-


 

Live Flight TrackerFlight Track Log ✈ IRO7343 ✈ 29-Apr-2013 ✈ KTVC - KGRR

Flight Track Log - Related Links

Times and Time Zones

All times are in EDT time to prevent confusion due to time zone crossing. See the IRO7343 flight status page for this flight to view local times or setup timezone preferences in your user account.

Time Position Orientation Groundspeed Altitude Reporting Facility
EDT Latitude Longitude Course Direction KTS MPH feet Rate Location/Type
07:53PM 44.7119 -85.5894 179° South 96 110 1,400  Level Chicago Center
07:54PM 44.6797 -85.5886 179° South 97 112 2,200 540 Climbing Minneapolis Center
07:55PM 44.6589 -85.5872 177° South 97 112 2,700 600 Climbing Minneapolis Center
07:56PM 44.6278 -85.5847 177° South 95 109 3,500 720 Climbing Minneapolis Center
07:57PM 44.5994 -85.5844 180° South 89 102 4,300 660 Climbing Minneapolis Center
07:58PM 44.5758 -85.5831 178° South 87 100 4,900 240 Climbing Minneapolis Center
07:59PM 44.5489 -85.5822 179° South 89 102 4,900  Level Minneapolis Center
08:00PM 44.5142 -85.5822 180° South 108 124 5,000  Climbing Minneapolis Center
08:01PM 44.4772 -85.5814 179° South 127 146 5,000  Level Minneapolis Center
08:02PM 44.4328 -85.5792 178° South 132 152 5,000  Level Minneapolis Center
08:03PM 44.3947 -85.5786 179° South 134 154 5,000  Level Minneapolis Center
08:04PM 44.3486 -85.5756 177° South 137 158 5,000  Level Minneapolis Center
08:05PM 44.3178 -85.5753 180° South 138 159 5,000  Level Minneapolis Center
08:06PM 44.2725 -85.5731 178° South 136 157 5,000  Level Minneapolis Center
08:08PM 44.2344 -85.5719 179° South 136 157 5,000  Level Minneapolis Center
08:09PM 44.1967 -85.5711 179° South 136 157 5,000  Level Minneapolis Center
08:10PM 44.1594 -85.5689 178° South 135 155 5,000  Level Minneapolis Center
08:11PM 44.1217 -85.5678 179° South 135 155 5,000  Level Minneapolis Center
08:12PM 44.0775 -85.5689 181° South 133 153 5,000  Level Minneapolis Center
08:13PM 44.0453 -85.5667 177° South 132 152 5,000  Level Minneapolis Center
08:14PM 44.0083 -85.5642 177° South 133 153 5,000  Level Minneapolis Center
08:15PM 43.9706 -85.5628 178° South 135 155 5,000  Level Minneapolis Center
08:16PM 43.9328 -85.5611 178° South 136 157 5,000  Level Minneapolis Center
08:17PM 43.8881 -85.5594 178° South 135 155 5,000  Level Minneapolis Center
08:18PM 43.8503 -85.5583 179° South 135 155 5,000  Level Minneapolis Center
08:19PM 43.8125 -85.5567 178° South 135 155 5,000  Level Minneapolis Center
08:20PM 43.7744 -85.5547 178° South 136 157 5,100  Climbing Minneapolis Center
08:21PM 43.7369 -85.5525 178° South 136 157 5,100  Level Minneapolis Center
08:22PM 43.6992 -85.5514 179° South 135 155 5,100  Level Minneapolis Center
08:23PM 43.6531 -85.5503 179° South 137 158 5,100 -120 Level Minneapolis Center
08:24PM 43.6147 -85.5506 180° South 139 160 4,900 -120 Descending Minneapolis Center
08:25PM 43.5756 -85.5494 179° South 140 161 4,900 -60 Level Minneapolis Center
08:26PM 43.5381 -85.5483 179° South 137 158 4,800 -180 Descending Minneapolis Center
08:27PM 43.5006 -85.5486 180° South 136 157 4,600 -300 Descending Minneapolis Center
08:28PM 43.4622 -85.5481 179° South 136 157 4,300 -300 Descending Minneapolis Center
08:29PM 43.4250 -85.5475 179° South 135 155 4,000 -300 Descending Minneapolis Center
08:30PM 43.3794 -85.5472 180° South 136 157 3,700 -300 Descending Minneapolis Center
08:31PM 43.3567 -85.5442 174° South 136 157 3,500 -360 Descending Chicago Center
08:32PM 43.3183 -85.5425 178° South 137 158 3,100 -360 Descending Chicago Center
08:33PM 43.2789 -85.5419 179° South 139 160 2,800 -300 Descending Chicago Center
08:34PM 43.2308 -85.5408 179° South 142 163 2,500 -120 Descending Chicago Center
08:35PM 43.1928 -85.5394 178° South 140 161 2,600  Climbing Chicago Center
08:36PM 43.1553 -85.5381 178° South 137 158 2,600  Level Chicago Center
08:37PM 43.1178 -85.5375 179° South 136 157 2,600  Level Chicago Center
08:38PM 43.0792 -85.5378 180° South 137 158 2,600  Level Chicago Center
08:39PM 43.0403 -85.5367 179° South 138 159 2,600  Level Chicago Center
08:40PM 43.0031 -85.5356 179° South 137 158 2,600 -60 Level Chicago Center
08:41PM 42.9569 -85.5333 178° South 137 158 2,500 -540 Descending Chicago Center
08:42PM 42.9219 -85.5264 172° South 133 153 1,600 -900 Descending Chicago Center